Emre Kose — 9HA2786 — position and weather

sailwx.info

Track history (hours):
 
Tides and Currents Weather Stations Pressure Air Temp Water Temp Dewpoint Dewpoint Depression Visibility Wind Speed Wind Dir Waves Ship Positions

Emre Kose

Last reported at 2017-Sep-20 19:53 UTC. Time now 2017-Sep-20 23:30 UTC.
Position N 44°30' E 012°29'.

Length 109 m; draft 6.6 m.

Type: Cargo ship. MMSI: 215692000.

Date/timePositionNaut miles runAvg speedWind from/ knotsBaromVisibWave heightAir tempDewpointWater temp
2017-Sep-20 19:53N 44°30' E 012°29'0 0.0
2017-Sep-20 19:17N 44°30' E 012°29'0 0.0
2017-Sep-20 18:59N 44°30' E 012°29'0 0.0
2017-Sep-20 18:29N 44°30' E 012°29'0 0.0
2017-Sep-20 17:56N 44°30' E 012°29'0 0.0
2017-Sep-20 17:26N 44°30' E 012°29'0 0.1
2017-Sep-20 16:59N 44°30' E 012°29'0 0.0
2017-Sep-20 16:29N 44°30' E 012°29'0 0.0
2017-Sep-20 15:56N 44°30' E 012°29'21 3.9
2017-Sep-20 10:35N 44°23' E 012°57'110.1
2017-Sep-20 10:29N 44°23' E 012°58'510.0
2017-Sep-20 10:00N 44°22' E 013°05'5 9.6
2017-Sep-20 09:30N 44°20' E 013°11'5 9.5
2017-Sep-20 09:00N 44°17' E 013°16'4 8.4
2017-Sep-20 08:30N 44°14' E 013°20'258 9.8
2017-Sep-19 06:03N 41°15' E 017°34'010.5
2017-Sep-19 06:00N 41°15' E 017°34'4410.1
2017-Sep-19 01:41N 40°42' E 018°13'3 9.8
2017-Sep-19 01:23N 40°40' E 018°15'4 9.9
2017-Sep-19 00:57N 40°37' E 018°19'510.0
2017-Sep-19 00:26N 40°33' E 018°23'510.1
2017-Sep-18 23:57N 40°29' E 018°27'510.1
2017-Sep-18 23:30N 40°25' E 018°30'810.3
2017-Sep-18 22:43N 40°18' E 018°35'210.3
2017-Sep-18 22:30N 40°16' E 018°36'810.2
2017-Sep-18 21:42N 40°08' E 018°40'7210.1
2017-Sep-18 14:31N 39°12' E 019°39'3 9.8
2017-Sep-18 14:13N 39°09' E 019°41'231 8.3
2017-Sep-17 10:24N 36°42' E 023°27'410.8
2017-Sep-17 10:00N 36°45' E 023°29'710.8
2017-Sep-17 09:23N 36°51' E 023°34'511.1
2017-Sep-17 08:56N 36°55' E 023°37'510.9
2017-Sep-17 08:30N 36°59' E 023°40'510.5
2017-Sep-17 08:00N 37°04' E 023°44'510.5
2017-Sep-17 07:30N 37°08' E 023°47'510.3
2017-Sep-17 07:00N 37°13' E 023°51'510.0
2017-Sep-17 06:30N 37°17' E 023°54'510.1
2017-Sep-17 06:00N 37°21' E 023°58'510.2
2017-Sep-17 05:30N 37°25' E 024°01'710.4
2017-Sep-17 04:52N 37°31' E 024°05'610.8
2017-Sep-17 04:17N 37°36' E 024°10'910.5
2017-Sep-17 03:24N 37°43' E 024°17'13410.5
2017-Sep-16 14:34N 39°40' E 025°42'110.7
2017-Sep-16 14:29N 39°41' E 025°43'610.7
2017-Sep-16 13:54N 39°47' E 025°46'911.5
2017-Sep-16 13:08N 39°54' E 025°52'211.8
2017-Sep-16 12:55N 39°56' E 025°54'94 9.3
2017-Sep-16 02:47N 40°47' E 027°38'3 9.9
2017-Sep-16 02:30N 40°47' E 027°42'5 9.6
2017-Sep-16 02:00N 40°48' E 027°48'5 9.5
2017-Sep-16 01:30N 40°49' E 027°54'5 9.6
2017-Sep-16 01:00N 40°49' E 028°00'510.4
2017-Sep-16 00:30N 40°50' E 028°07'510.6
2017-Sep-16 00:00N 40°51' E 028°14'510.6
2017-Sep-15 23:30N 40°52' E 028°21'510.8
2017-Sep-15 23:00N 40°53' E 028°28'510.7
2017-Sep-15 22:30N 40°54' E 028°35'30 1.7
2017-Sep-15 05:07N 41°17' E 029°01'0 0.1
2017-Sep-15 04:55N 41°17' E 029°01'0 0.0
2017-Sep-15 01:25N 41°17' E 029°01'0 0.0
2017-Sep-15 00:55N 41°17' E 029°01'0 0.0
2017-Sep-15 00:25N 41°17' E 029°01'0 0.0
2017-Sep-14 23:49N 41°17' E 029°01'0 0.0
2017-Sep-14 23:28N 41°17' E 029°01'0 0.0
2017-Sep-14 22:58N 41°17' E 029°01'0 0.0
2017-Sep-14 22:28N 41°17' E 029°01'0 0.0
2017-Sep-14 21:58N 41°17' E 029°01'5 1.6
2017-Sep-14 18:54N 41°21' E 029°02'410.5
2017-Sep-14 18:30N 41°25' E 029°05'510.8
2017-Sep-14 18:00N 41°30' E 029°08'511.0
2017-Sep-14 17:30N 41°35' E 029°07'611.3
2017-Sep-14 17:00N 41°41' E 029°07'611.3
2017-Sep-14 16:30N 41°47' E 029°06'611.2
2017-Sep-14 16:00N 41°52' E 029°05'611.2
2017-Sep-14 15:30N 41°58' E 029°05'511.0
2017-Sep-14 15:00N 42°03' E 029°04'510.7
2017-Sep-14 14:30N 42°09' E 029°03'510.7
2017-Sep-14 14:00N 42°14' E 029°03'510.6
2017-Sep-14 13:30N 42°19' E 029°02'510.6
2017-Sep-14 13:00N 42°24' E 029°01'510.7
2017-Sep-14 12:30N 42°30' E 029°01'610.7
2017-Sep-14 11:59N 42°36' E 029°00'510.7
2017-Sep-14 11:29N 42°41' E 028°59'810.8
2017-Sep-14 10:43N 42°49' E 028°58'210.9
2017-Sep-14 10:30N 42°51' E 028°58'3010.9
2017-Sep-14 07:43N 43°22' E 028°54'210.8
2017-Sep-14 07:30N 43°24' E 028°53'510.8
2017-Sep-14 07:00N 43°29' E 028°53'510.8
2017-Sep-14 06:30N 43°35' E 028°52'510.7
2017-Sep-14 06:00N 43°40' E 028°51'510.5
2017-Sep-14 05:30N 43°45' E 028°51'510.5
2017-Sep-14 05:00N 43°50' E 028°50'510.3
2017-Sep-14 04:30N 43°55' E 028°49'5 9.9
2017-Sep-14 04:00N 44°00' E 028°47'510.7
2017-Sep-14 03:30N 44°05' E 028°43'4 8.5
2017-Sep-14 03:00N 44°08' E 028°40'1 2.0
2017-Sep-14 02:28N 44°09' E 028°39'0 0.0
2017-Sep-14 01:58N 44°09' E 028°39'0 0.0
2017-Sep-14 01:28N 44°09' E 028°39'0 0.0
2017-Sep-14 00:58N 44°09' E 028°39'0 0.0
2017-Sep-14 00:28N 44°09' E 028°39'0 0.0
2017-Sep-13 23:55N 44°09' E 028°39'0 0.0
2017-Sep-13 23:28N 44°09' E 028°39'0 0.0
2017-Sep-13 22:55N 44°09' E 028°39'0 0.0
2017-Sep-13 22:28N 44°09' E 028°39'0 0.0
2017-Sep-13 21:58N 44°09' E 028°39'0 0.0
2017-Sep-13 21:28N 44°09' E 028°39'0 0.0
2017-Sep-13 20:55N 44°09' E 028°39'0 0.0
2017-Sep-13 20:28N 44°09' E 028°39'0 0.0
2017-Sep-13 19:58N 44°09' E 028°39'0 0.0
2017-Sep-13 19:28N 44°09' E 028°39'0 0.0
2017-Sep-13 18:49N 44°09' E 028°39'0 0.0
2017-Sep-13 18:28N 44°09' E 028°39'0 0.0
2017-Sep-13 17:58N 44°09' E 028°39'0 0.0
2017-Sep-13 17:28N 44°09' E 028°39'0 0.0
2017-Sep-13 16:58N 44°09' E 028°39'0 0.0
2017-Sep-13 16:28N 44°09' E 028°39'0 0.0
2017-Sep-13 15:58N 44°09' E 028°39'0 0.0
2017-Sep-13 15:28N 44°09' E 028°39'0 0.0
2017-Sep-13 14:58N 44°09' E 028°39'0 0.0
2017-Sep-13 14:28N 44°09' E 028°39'0 0.0
2017-Sep-13 13:58N 44°09' E 028°39'0 0.0
2017-Sep-13 13:28N 44°09' E 028°39'0 0.0
2017-Sep-13 12:58N 44°09' E 028°39'0 0.0
2017-Sep-13 12:25N 44°09' E 028°39'0 0.0
2017-Sep-13 11:55N 44°09' E 028°39'0 0.0
2017-Sep-13 11:28N 44°09' E 028°39'0 0.0
2017-Sep-13 10:52N 44°09' E 028°39'0 0.0
2017-Sep-13 10:28N 44°09' E 028°39'0 0.0
2017-Sep-13 09:52N 44°09' E 028°39'0 0.0
2017-Sep-13 09:28N 44°09' E 028°39'0 0.0
2017-Sep-13 08:58N 44°09' E 028°39'0 0.0
2017-Sep-13 08:28N 44°09' E 028°39'0 0.0
2017-Sep-13 07:58N 44°09' E 028°39'0 0.0
2017-Sep-13 07:28N 44°09' E 028°39'0 0.0
2017-Sep-13 06:58N 44°09' E 028°39'0 0.0
2017-Sep-13 06:28N 44°09' E 028°39'0 0.0
2017-Sep-13 05:58N 44°09' E 028°39'0 0.0
2017-Sep-13 05:28N 44°09' E 028°39'0 0.0
2017-Sep-13 04:55N 44°09' E 028°39'0 0.0
2017-Sep-13 04:28N 44°09' E 028°39'0 0.0
2017-Sep-13 03:58N 44°09' E 028°39'0 0.0
2017-Sep-13 03:25N 44°09' E 028°39'0 0.0
2017-Sep-13 02:55N 44°09' E 028°39'0 0.0
2017-Sep-13 02:28N 44°09' E 028°39'0 0.0
2017-Sep-13 01:55N 44°09' E 028°39'0 0.0
2017-Sep-13 01:28N 44°09' E 028°39'0 0.0
2017-Sep-13 00:58N 44°09' E 028°39'0 0.0
2017-Sep-13 00:28N 44°09' E 028°39'0 0.0
2017-Sep-12 23:55N 44°09' E 028°39'0 0.0
2017-Sep-12 23:28N 44°09' E 028°39'0 0.0
2017-Sep-12 22:58N 44°09' E 028°39'0 0.0
2017-Sep-12 22:28N 44°09' E 028°39'0 0.0
2017-Sep-12 21:58N 44°09' E 028°39'0 0.0
2017-Sep-12 21:28N 44°09' E 028°39'0 0.0
2017-Sep-12 20:58N 44°09' E 028°39'0 0.0
2017-Sep-12 20:28N 44°09' E 028°39'0 0.0
2017-Sep-12 19:58N 44°09' E 028°39'0 0.0
2017-Sep-12 19:28N 44°09' E 028°39'0 0.0
2017-Sep-12 18:52N 44°09' E 028°39'0 0.0
2017-Sep-12 18:28N 44°09' E 028°39'0 0.0
2017-Sep-12 17:58N 44°09' E 028°39'0 0.0
2017-Sep-12 17:25N 44°09' E 028°39'0 0.0
2017-Sep-12 16:58N 44°09' E 028°39'0 0.0
2017-Sep-12 16:28N 44°09' E 028°39'0 0.0
2017-Sep-12 15:58N 44°09' E 028°39'0 0.0
2017-Sep-12 15:25N 44°09' E 028°39'0 0.0
2017-Sep-12 14:55N 44°09' E 028°39'0 0.0
2017-Sep-12 14:28N 44°09' E 028°39'0 0.0
2017-Sep-12 13:58N 44°09' E 028°39'0 0.0
2017-Sep-12 13:25N 44°09' E 028°39'0 0.0
2017-Sep-12 12:58N 44°09' E 028°39'0 0.0
2017-Sep-12 12:28N 44°09' E 028°39'0 0.0
2017-Sep-12 11:58N 44°09' E 028°39'0 0.0
2017-Sep-12 11:28N 44°09' E 028°39'0 0.0
2017-Sep-12 10:58N 44°09' E 028°39'0 0.0
2017-Sep-12 10:25N 44°09' E 028°39'0 0.0
2017-Sep-12 09:58N 44°09' E 028°39'0 0.0
2017-Sep-12 09:28N 44°09' E 028°39'0 0.0
2017-Sep-12 09:00N 44°09' E 028°39'0 0.8
2017-Sep-12 08:30N 44°09' E 028°39'1 2.1
2017-Sep-12 08:00N 44°08' E 028°40'4 7.1
2017-Sep-12 07:30N 44°05' E 028°43'4 8.4
2017-Sep-12 07:00N 44°02' E 028°47'611.5
2017-Sep-12 06:30N 43°57' E 028°52'1 2.5
2017-Sep-12 06:00N 43°56' E 028°51'3 5.2
2017-Sep-12 05:30N 43°54' E 028°51'4 8.1
2017-Sep-12 05:00N 43°50' E 028°51'4 7.6
2017-Sep-12 04:30N 43°46' E 028°51'4 7.7
2017-Sep-12 04:00N 43°42' E 028°52'4 7.7
2017-Sep-12 03:30N 43°38' E 028°52'4 7.6
2017-Sep-12 03:00N 43°34' E 028°53'3 6.8
2017-Sep-12 02:30N 43°31' E 028°54'4 9.0
2017-Sep-12 02:00N 43°26' E 028°54'510.6
2017-Sep-12 01:30N 43°21' E 028°55'510.6
2017-Sep-12 01:00N 43°16' E 028°56'510.6
2017-Sep-12 00:30N 43°11' E 028°56'510.5
2017-Sep-12 00:00N 43°05' E 028°57'510.3
2017-Sep-11 23:30N 43°00' E 028°58'510.1
2017-Sep-11 23:00N 42°55' E 028°59'510.2
2017-Sep-11 22:30N 42°50' E 028°59'510.3
2017-Sep-11 22:00N 42°45' E 029°00'510.4
2017-Sep-11 21:30N 42°40' E 029°01'510.4
2017-Sep-11 21:00N 42°35' E 029°02'510.4
2017-Sep-11 20:30N 42°29' E 029°03'510.5
2017-Sep-11 20:00N 42°24' E 029°04'510.1
2017-Sep-11 19:30N 42°19' E 029°05'510.1
2017-Sep-11 19:00N 42°14' E 029°06'510.1
2017-Sep-11 18:30N 42°10' E 029°08'510.2
2017-Sep-11 18:00N 42°05' E 029°11'6 9.5
2017-Sep-11 17:22N 41°59' E 029°10'4 9.9
2017-Sep-11 17:00N 41°55' E 029°08'5 9.4
2017-Sep-11 16:30N 41°51' E 029°08'5 9.4
2017-Sep-11 16:00N 41°46' E 029°09'5 9.4
2017-Sep-11 15:30N 41°41' E 029°10'5 9.4
2017-Sep-11 15:00N 41°37' E 029°11'5 9.4
2017-Sep-11 14:30N 41°32' E 029°11'5 9.6
2017-Sep-11 14:01N 41°27' E 029°12'510.4
2017-Sep-11 13:30N 41°22' E 029°12'510.1
2017-Sep-11 13:00N 41°17' E 029°11'511.0
2017-Sep-11 12:30N 41°12' E 029°07'12 9.4
2017-Sep-11 11:13N 41°01' E 029°00'210.5
2017-Sep-11 11:00N 40°59' E 028°60'4 7.9
2017-Sep-11 10:30N 40°56' E 028°58'2 4.4
2017-Sep-11 10:00N 40°56' E 028°55'1 0.1
2017-Sep-11 01:24N 40°57' E 028°54'0 0.0
2017-Sep-11 01:00N 40°57' E 028°54'0 0.0
2017-Sep-11 00:30N 40°57' E 028°54'0 0.0
2017-Sep-10 23:18N 40°57' E 028°54'0 0.0
2017-Sep-10 20:18N 40°57' E 028°54'0 0.0
2017-Sep-10 20:00N 40°57' E 028°54'  
Track history (hours):
 
Tides and Currents Weather Stations Pressure Air Temp Water Temp Dewpoint Dewpoint Depression Visibility Wind Speed Wind Dir Waves Ship Positions

Emre Kose

Last reported at 2017-Sep-20 19:53 UTC. Time now 2017-Sep-20 23:30 UTC.
Position N 44°30' E 012°29'.

Length 109 m; draft 6.6 m.

Type: Cargo ship. MMSI: 215692000.

Date/timePositionNaut miles runAvg speedWind from/ knotsBaromVisibWave heightAir tempDewpointWater temp
2017-Sep-20 19:53N 44°30' E 012°29'0 0.0
2017-Sep-20 19:17N 44°30' E 012°29'0 0.0
2017-Sep-20 18:59N 44°30' E 012°29'0 0.0
2017-Sep-20 18:29N 44°30' E 012°29'0 0.0
2017-Sep-20 17:56N 44°30' E 012°29'0 0.0
2017-Sep-20 17:26N 44°30' E 012°29'0 0.1
2017-Sep-20 16:59N 44°30' E 012°29'0 0.0
2017-Sep-20 16:29N 44°30' E 012°29'0 0.0
2017-Sep-20 15:56N 44°30' E 012°29'21 3.9
2017-Sep-20 10:35N 44°23' E 012°57'110.1
2017-Sep-20 10:29N 44°23' E 012°58'510.0
2017-Sep-20 10:00N 44°22' E 013°05'5 9.6
2017-Sep-20 09:30N 44°20' E 013°11'5 9.5
2017-Sep-20 09:00N 44°17' E 013°16'4 8.4
2017-Sep-20 08:30N 44°14' E 013°20'258 9.8
2017-Sep-19 06:03N 41°15' E 017°34'010.5
2017-Sep-19 06:00N 41°15' E 017°34'4410.1
2017-Sep-19 01:41N 40°42' E 018°13'3 9.8
2017-Sep-19 01:23N 40°40' E 018°15'4 9.9
2017-Sep-19 00:57N 40°37' E 018°19'510.0
2017-Sep-19 00:26N 40°33' E 018°23'510.1
2017-Sep-18 23:57N 40°29' E 018°27'510.1
2017-Sep-18 23:30N 40°25' E 018°30'810.3
2017-Sep-18 22:43N 40°18' E 018°35'210.3
2017-Sep-18 22:30N 40°16' E 018°36'810.2
2017-Sep-18 21:42N 40°08' E 018°40'7210.1
2017-Sep-18 14:31N 39°12' E 019°39'3 9.8
2017-Sep-18 14:13N 39°09' E 019°41'231 8.3
2017-Sep-17 10:24N 36°42' E 023°27'410.8
2017-Sep-17 10:00N 36°45' E 023°29'710.8
2017-Sep-17 09:23N 36°51' E 023°34'511.1
2017-Sep-17 08:56N 36°55' E 023°37'510.9
2017-Sep-17 08:30N 36°59' E 023°40'510.5
2017-Sep-17 08:00N 37°04' E 023°44'510.5
2017-Sep-17 07:30N 37°08' E 023°47'510.3
2017-Sep-17 07:00N 37°13' E 023°51'510.0
2017-Sep-17 06:30N 37°17' E 023°54'510.1
2017-Sep-17 06:00N 37°21' E 023°58'510.2
2017-Sep-17 05:30N 37°25' E 024°01'710.4
2017-Sep-17 04:52N 37°31' E 024°05'610.8
2017-Sep-17 04:17N 37°36' E 024°10'910.5
2017-Sep-17 03:24N 37°43' E 024°17'13410.5
2017-Sep-16 14:34N 39°40' E 025°42'110.7
2017-Sep-16 14:29N 39°41' E 025°43'610.7
2017-Sep-16 13:54N 39°47' E 025°46'911.5
2017-Sep-16 13:08N 39°54' E 025°52'211.8
2017-Sep-16 12:55N 39°56' E 025°54'94 9.3
2017-Sep-16 02:47N 40°47' E 027°38'3 9.9
2017-Sep-16 02:30N 40°47' E 027°42'5 9.6
2017-Sep-16 02:00N 40°48' E 027°48'5 9.5
2017-Sep-16 01:30N 40°49' E 027°54'5 9.6
2017-Sep-16 01:00N 40°49' E 028°00'510.4
2017-Sep-16 00:30N 40°50' E 028°07'510.6
2017-Sep-16 00:00N 40°51' E 028°14'510.6
2017-Sep-15 23:30N 40°52' E 028°21'510.8
2017-Sep-15 23:00N 40°53' E 028°28'510.7
2017-Sep-15 22:30N 40°54' E 028°35'30 1.7
2017-Sep-15 05:07N 41°17' E 029°01'0 0.1
2017-Sep-15 04:55N 41°17' E 029°01'0 0.0
2017-Sep-15 01:25N 41°17' E 029°01'0 0.0
2017-Sep-15 00:55N 41°17' E 029°01'0 0.0
2017-Sep-15 00:25N 41°17' E 029°01'0 0.0
2017-Sep-14 23:49N 41°17' E 029°01'0 0.0
2017-Sep-14 23:28N 41°17' E 029°01'0 0.0
2017-Sep-14 22:58N 41°17' E 029°01'0 0.0
2017-Sep-14 22:28N 41°17' E 029°01'0 0.0
2017-Sep-14 21:58N 41°17' E 029°01'5 1.6
2017-Sep-14 18:54N 41°21' E 029°02'410.5
2017-Sep-14 18:30N 41°25' E 029°05'510.8
2017-Sep-14 18:00N 41°30' E 029°08'511.0
2017-Sep-14 17:30N 41°35' E 029°07'611.3
2017-Sep-14 17:00N 41°41' E 029°07'611.3
2017-Sep-14 16:30N 41°47' E 029°06'611.2
2017-Sep-14 16:00N 41°52' E 029°05'611.2
2017-Sep-14 15:30N 41°58' E 029°05'511.0
2017-Sep-14 15:00N 42°03' E 029°04'510.7
2017-Sep-14 14:30N 42°09' E 029°03'510.7
2017-Sep-14 14:00N 42°14' E 029°03'510.6
2017-Sep-14 13:30N 42°19' E 029°02'510.6
2017-Sep-14 13:00N 42°24' E 029°01'510.7
2017-Sep-14 12:30N 42°30' E 029°01'610.7
2017-Sep-14 11:59N 42°36' E 029°00'510.7
2017-Sep-14 11:29N 42°41' E 028°59'810.8
2017-Sep-14 10:43N 42°49' E 028°58'210.9
2017-Sep-14 10:30N 42°51' E 028°58'3010.9
2017-Sep-14 07:43N 43°22' E 028°54'210.8
2017-Sep-14 07:30N 43°24' E 028°53'510.8
2017-Sep-14 07:00N 43°29' E 028°53'510.8
2017-Sep-14 06:30N 43°35' E 028°52'510.7
2017-Sep-14 06:00N 43°40' E 028°51'510.5
2017-Sep-14 05:30N 43°45' E 028°51'510.5
2017-Sep-14 05:00N 43°50' E 028°50'510.3
2017-Sep-14 04:30N 43°55' E 028°49'5 9.9
2017-Sep-14 04:00N 44°00' E 028°47'510.7
2017-Sep-14 03:30N 44°05' E 028°43'4 8.5
2017-Sep-14 03:00N 44°08' E 028°40'1 2.0
2017-Sep-14 02:28N 44°09' E 028°39'0 0.0
2017-Sep-14 01:58N 44°09' E 028°39'0 0.0
2017-Sep-14 01:28N 44°09' E 028°39'0 0.0
2017-Sep-14 00:58N 44°09' E 028°39'0 0.0
2017-Sep-14 00:28N 44°09' E 028°39'0 0.0
2017-Sep-13 23:55N 44°09' E 028°39'0 0.0
2017-Sep-13 23:28N 44°09' E 028°39'0 0.0
2017-Sep-13 22:55N 44°09' E 028°39'0 0.0
2017-Sep-13 22:28N 44°09' E 028°39'0 0.0
2017-Sep-13 21:58N 44°09' E 028°39'0 0.0
2017-Sep-13 21:28N 44°09' E 028°39'0 0.0
2017-Sep-13 20:55N 44°09' E 028°39'0 0.0
2017-Sep-13 20:28N 44°09' E 028°39'0 0.0
2017-Sep-13 19:58N 44°09' E 028°39'0 0.0
2017-Sep-13 19:28N 44°09' E 028°39'0 0.0
2017-Sep-13 18:49N 44°09' E 028°39'0 0.0
2017-Sep-13 18:28N 44°09' E 028°39'0 0.0
2017-Sep-13 17:58N 44°09' E 028°39'0 0.0
2017-Sep-13 17:28N 44°09' E 028°39'0 0.0
2017-Sep-13 16:58N 44°09' E 028°39'0 0.0
2017-Sep-13 16:28N 44°09' E 028°39'0 0.0
2017-Sep-13 15:58N 44°09' E 028°39'0 0.0
2017-Sep-13 15:28N 44°09' E 028°39'0 0.0
2017-Sep-13 14:58N 44°09' E 028°39'0 0.0
2017-Sep-13 14:28N 44°09' E 028°39'0 0.0
2017-Sep-13 13:58N 44°09' E 028°39'0 0.0
2017-Sep-13 13:28N 44°09' E 028°39'0 0.0
2017-Sep-13 12:58N 44°09' E 028°39'0 0.0
2017-Sep-13 12:25N 44°09' E 028°39'0 0.0
2017-Sep-13 11:55N 44°09' E 028°39'0 0.0
2017-Sep-13 11:28N 44°09' E 028°39'0 0.0
2017-Sep-13 10:52N 44°09' E 028°39'0 0.0
2017-Sep-13 10:28N 44°09' E 028°39'0 0.0
2017-Sep-13 09:52N 44°09' E 028°39'0 0.0
2017-Sep-13 09:28N 44°09' E 028°39'0 0.0
2017-Sep-13 08:58N 44°09' E 028°39'0 0.0
2017-Sep-13 08:28N 44°09' E 028°39'0 0.0
2017-Sep-13 07:58N 44°09' E 028°39'0 0.0
2017-Sep-13 07:28N 44°09' E 028°39'0 0.0
2017-Sep-13 06:58N 44°09' E 028°39'0 0.0
2017-Sep-13 06:28N 44°09' E 028°39'0 0.0
2017-Sep-13 05:58N 44°09' E 028°39'0 0.0
2017-Sep-13 05:28N 44°09' E 028°39'0 0.0
2017-Sep-13 04:55N 44°09' E 028°39'0 0.0
2017-Sep-13 04:28N 44°09' E 028°39'0 0.0
2017-Sep-13 03:58N 44°09' E 028°39'0 0.0
2017-Sep-13 03:25N 44°09' E 028°39'0 0.0
2017-Sep-13 02:55N 44°09' E 028°39'0 0.0
2017-Sep-13 02:28N 44°09' E 028°39'0 0.0
2017-Sep-13 01:55N 44°09' E 028°39'0 0.0
2017-Sep-13 01:28N 44°09' E 028°39'0 0.0
2017-Sep-13 00:58N 44°09' E 028°39'0 0.0
2017-Sep-13 00:28N 44°09' E 028°39'0 0.0
2017-Sep-12 23:55N 44°09' E 028°39'0 0.0
2017-Sep-12 23:28N 44°09' E 028°39'0 0.0
2017-Sep-12 22:58N 44°09' E 028°39'0 0.0
2017-Sep-12 22:28N 44°09' E 028°39'0 0.0
2017-Sep-12 21:58N 44°09' E 028°39'0 0.0
2017-Sep-12 21:28N 44°09' E 028°39'0 0.0
2017-Sep-12 20:58N 44°09' E 028°39'0 0.0
2017-Sep-12 20:28N 44°09' E 028°39'0 0.0
2017-Sep-12 19:58N 44°09' E 028°39'0 0.0
2017-Sep-12 19:28N 44°09' E 028°39'0 0.0
2017-Sep-12 18:52N 44°09' E 028°39'0 0.0
2017-Sep-12 18:28N 44°09' E 028°39'0 0.0
2017-Sep-12 17:58N 44°09' E 028°39'0 0.0
2017-Sep-12 17:25N 44°09' E 028°39'0 0.0
2017-Sep-12 16:58N 44°09' E 028°39'0 0.0
2017-Sep-12 16:28N 44°09' E 028°39'0 0.0
2017-Sep-12 15:58N 44°09' E 028°39'0 0.0
2017-Sep-12 15:25N 44°09' E 028°39'0 0.0
2017-Sep-12 14:55N 44°09' E 028°39'0 0.0
2017-Sep-12 14:28N 44°09' E 028°39'0 0.0
2017-Sep-12 13:58N 44°09' E 028°39'0 0.0
2017-Sep-12 13:25N 44°09' E 028°39'0 0.0
2017-Sep-12 12:58N 44°09' E 028°39'0 0.0
2017-Sep-12 12:28N 44°09' E 028°39'0 0.0
2017-Sep-12 11:58N 44°09' E 028°39'0 0.0
2017-Sep-12 11:28N 44°09' E 028°39'0 0.0
2017-Sep-12 10:58N 44°09' E 028°39'0 0.0
2017-Sep-12 10:25N 44°09' E 028°39'0 0.0
2017-Sep-12 09:58N 44°09' E 028°39'0 0.0
2017-Sep-12 09:28N 44°09' E 028°39'0 0.0
2017-Sep-12 09:00N 44°09' E 028°39'0 0.8
2017-Sep-12 08:30N 44°09' E 028°39'1 2.1
2017-Sep-12 08:00N 44°08' E 028°40'4 7.1
2017-Sep-12 07:30N 44°05' E 028°43'4 8.4
2017-Sep-12 07:00N 44°02' E 028°47'611.5
2017-Sep-12 06:30N 43°57' E 028°52'1 2.5
2017-Sep-12 06:00N 43°56' E 028°51'3 5.2
2017-Sep-12 05:30N 43°54' E 028°51'4 8.1
2017-Sep-12 05:00N 43°50' E 028°51'4 7.6
2017-Sep-12 04:30N 43°46' E 028°51'4 7.7
2017-Sep-12 04:00N 43°42' E 028°52'4 7.7
2017-Sep-12 03:30N 43°38' E 028°52'4 7.6
2017-Sep-12 03:00N 43°34' E 028°53'3 6.8
2017-Sep-12 02:30N 43°31' E 028°54'4 9.0
2017-Sep-12 02:00N 43°26' E 028°54'510.6
2017-Sep-12 01:30N 43°21' E 028°55'510.6
2017-Sep-12 01:00N 43°16' E 028°56'510.6
2017-Sep-12 00:30N 43°11' E 028°56'510.5
2017-Sep-12 00:00N 43°05' E 028°57'510.3
2017-Sep-11 23:30N 43°00' E 028°58'510.1
2017-Sep-11 23:00N 42°55' E 028°59'510.2
2017-Sep-11 22:30N 42°50' E 028°59'510.3
2017-Sep-11 22:00N 42°45' E 029°00'510.4
2017-Sep-11 21:30N 42°40' E 029°01'510.4
2017-Sep-11 21:00N 42°35' E 029°02'510.4
2017-Sep-11 20:30N 42°29' E 029°03'510.5
2017-Sep-11 20:00N 42°24' E 029°04'510.1
2017-Sep-11 19:30N 42°19' E 029°05'510.1
2017-Sep-11 19:00N 42°14' E 029°06'510.1
2017-Sep-11 18:30N 42°10' E 029°08'510.2
2017-Sep-11 18:00N 42°05' E 029°11'6 9.5
2017-Sep-11 17:22N 41°59' E 029°10'4 9.9
2017-Sep-11 17:00N 41°55' E 029°08'5 9.4
2017-Sep-11 16:30N 41°51' E 029°08'5 9.4
2017-Sep-11 16:00N 41°46' E 029°09'5 9.4
2017-Sep-11 15:30N 41°41' E 029°10'5 9.4
2017-Sep-11 15:00N 41°37' E 029°11'5 9.4
2017-Sep-11 14:30N 41°32' E 029°11'5 9.6
2017-Sep-11 14:01N 41°27' E 029°12'510.4
2017-Sep-11 13:30N 41°22' E 029°12'510.1
2017-Sep-11 13:00N 41°17' E 029°11'511.0
2017-Sep-11 12:30N 41°12' E 029°07'12 9.4
2017-Sep-11 11:13N 41°01' E 029°00'210.5
2017-Sep-11 11:00N 40°59' E 028°60'4 7.9
2017-Sep-11 10:30N 40°56' E 028°58'2 4.4
2017-Sep-11 10:00N 40°56' E 028°55'1 0.1
2017-Sep-11 01:24N 40°57' E 028°54'0 0.0
2017-Sep-11 01:00N 40°57' E 028°54'0 0.0
2017-Sep-11 00:30N 40°57' E 028°54'0 0.0
2017-Sep-10 23:18N 40°57' E 028°54'0 0.0
2017-Sep-10 20:18N 40°57' E 028°54'0 0.0
2017-Sep-10 20:00N 40°57' E 028°54'  

Dump ship's entire track history